Latest Coastal Weather Observations for Sydney Harbour

IDN60701

Issued at 9:41 am EST Saturday 4 July 2015 (issued every 10 minutes, with the page automatically refreshed every 10 minutes)

About coastal observations | Map of coastal stations | Coastal observations for NSW | Marine services | Other Formats
Station Details ID: 066196 Name: WEDDING CAKE WEST Lat: -33.84 Lon: 151.26 Height: 6.0 m
Data from the previous 72 hours. | See also: Recent months for locations in New South Wales
Date/Time
EST
Temp

°C
Wind Pressure Rain
since 9am
mm
Weather Cloud Vis
km
Sea
Height
m
Swell
Dir
 
Speed
knots
Gust
knots
hPa Trend Height
m
Period
s
Dir
04/09:30am 8.6 W 9 11 - - - - - - - - - -
04/09:00am 8.0 W 5 8 - - - - - - - - - -
04/08:30am 7.8 WSW 6 9 - - - - - - - - - -
04/08:00am 7.6 WSW 7 9 - - - - - - - - - -
04/07:30am 7.1 WSW 7 9 - - - - - - - - - -
04/07:00am 7.1 W 7 9 - - - - - - - - - -
04/06:30am 6.9 W 7 9 - - - - - - - - - -
04/06:00am 7.4 WSW 9 12 - - - - - - - - - -
04/05:30am 7.4 W 11 13 - - - - - - - - - -
04/05:00am 7.4 W 10 12 - - - - - - - - - -
04/04:30am 8.2 W 7 11 - - - - - - - - - -
04/04:00am 8.4 W 4 6 - - - - - - - - - -
04/03:30am 8.4 W 5 8 - - - - - - - - - -
04/03:00am 8.5 W 5 6 - - - - - - - - - -
04/02:30am 8.6 W 6 7 - - - - - - - - - -
04/02:00am 9.0 W 5 7 - - - - - - - - - -
04/01:30am 9.1 W 5 7 - - - - - - - - - -
04/01:00am 9.4 W 5 7 - - - - - - - - - -
04/12:30am 9.6 W 5 6 - - - - - - - - - -
04/12:00am 9.5 W 8 10 - - - - - - - - - -
 
Date/Time
EST
Temp

°C
Wind Pressure Rain
since 9am
mm
Weather Cloud Vis
km
Sea
Height
m
Swell
Dir
 
Speed
knots
Gust
knots
hPa Trend Height
m
Period
s
Dir
03/11:30pm 10.1 WSW 7 9 - - - - - - - - - -
03/11:00pm 11.7 WSW 2 5 - - - - - - - - - -
03/10:30pm 11.6 CALM 0 0 - - - - - - - - - -
03/10:00pm 11.4 WSW 2 4 - - - - - - - - - -
03/09:30pm 11.8 WSW 1 4 - - - - - - - - - -
03/09:00pm 11.7 WSW 3 4 - - - - - - - - - -
03/08:30pm 12.1 WSW 3 4 - - - - - - - - - -
03/08:00pm 12.5 WSW 5 5 - - - - - - - - - -
03/07:30pm 12.5 WSW 5 5 - - - - - - - - - -
03/07:00pm 12.8 WSW 5 6 - - - - - - - - - -
03/06:30pm 13.1 SSW 5 6 - - - - - - - - - -
03/06:00pm 13.5 S 5 6 - - - - - - - - - -
03/05:30pm 13.3 S 5 6 - - - - - - - - - -
03/05:00pm 13.6 S 8 9 - - - - - - - - - -
03/04:30pm 13.6 S 8 11 - - - - - - - - - -
03/04:00pm 13.9 S 8 12 - - - - - - - - - -
03/03:30pm 14.0 SSE 11 13 - - - - - - - - - -
03/03:00pm 13.8 S 12 15 - - - - - - - - - -
03/02:30pm 13.7 S 12 16 - - - - - - - - - -
03/02:00pm 13.9 SSW 12 15 - - - - - - - - - -
03/01:30pm 13.7 SW 15 19 - - - - - - - - - -
03/01:00pm 13.4 SSW 15 19 - - - - - - - - - -
03/12:30pm 13.3 SSW 15 19 - - - - - - - - - -
03/12:00pm 13.4 SSW 15 19 - - - - - - - - - -
03/11:30am 13.2 SW 12 19 - - - - - - - - - -
03/11:00am 11.6 WSW 11 14 - - - - - - - - - -
03/10:30am 10.7 WSW 11 15 - - - - - - - - - -
03/10:00am 10.2 W 13 16 - - - - - - - - - -
03/09:30am 9.6 WSW 13 17 - - - - - - - - - -
03/09:00am 8.7 W 15 19 - - - - - - - - - -
03/08:30am 8.5 W 17 21 - - - - - - - - - -
03/08:00am 8.0 W 17 21 - - - - - - - - - -
03/07:30am 7.9 W 18 21 - - - - - - - - - -
03/07:00am 7.7 W 17 20 - - - - - - - - - -
03/06:30am 8.3 W 16 20 - - - - - - - - - -
03/06:00am 8.0 W 16 21 - - - - - - - - - -
03/05:30am 8.6 WSW 13 17 - - - - - - - - - -
03/05:00am 8.1 W 18 22 - - - - - - - - - -
03/04:30am 8.2 W 18 23 - - - - - - - - - -
03/04:00am 8.4 W 17 22 - - - - - - - - - -
03/03:30am 8.5 W 16 20 - - - - - - - - - -
03/03:00am 9.1 WSW 13 18 - - - - - - - - - -
03/02:38am 8.8 W 17 26 - - - - - - - - - -
03/02:30am 9.5 WSW 12 15 - - - - - - - - - -
03/02:00am 9.3 W 17 22 - - - - - - - - - -
03/01:30am 9.4 W 17 21 - - - - - - - - - -
03/01:00am 10.2 WSW 13 19 - - - - - - - - - -
03/12:30am 10.4 WSW 15 19 - - - - - - - - - -
03/12:00am 11.0 WSW 19 25 - - - - - - - - - -
 
Date/Time
EST
Temp

°C
Wind Pressure Rain
since 9am
mm
Weather Cloud Vis
km
Sea
Height
m
Swell
Dir
 
Speed
knots
Gust
knots
hPa Trend Height
m
Period
s
Dir
02/11:30pm 11.3 WSW 17 24 - - - - - - - - - -
02/11:00pm 11.7 SW 21 26 - - - - - - - - - -
02/10:30pm 11.8 SW 17 23 - - - - - - - - - -
02/10:00pm 12.0 SW 20 26 - - - - - - - - - -
02/09:30pm 12.1 SW 19 24 - - - - - - - - - -
02/09:00pm 12.4 SW 20 25 - - - - - - - - - -
02/08:33pm 12.7 SW 20 30 - - - - - - - - - -
02/08:30pm 12.7 SW 20 26 - - - - - - - - - -
02/08:00pm 13.1 SW 20 24 - - - - - - - - - -
02/07:30pm 13.4 SW 21 27 - - - - - - - - - -
02/07:00pm 13.3 SW 18 23 - - - - - - - - - -
02/06:32pm 13.5 WSW 19 29 - - - - - - - - - -
02/06:30pm 13.5 WSW 20 29 - - - - - - - - - -
02/06:00pm 13.7 WSW 24 35 - - - - - - - - - -
02/05:30pm 14.2 WSW 27 39 - - - - - - - - - -
02/05:00pm 14.8 WSW 25 38 - - - - - - - - - -
02/04:30pm 15.3 WSW 21 31 - - - - - - - - - -
02/04:29pm 15.4 WSW 21 31 - - - - - - - - - -
02/04:00pm 15.4 WSW 21 29 - - - - - - - - - -
02/03:43pm 15.6 WSW 20 32 - - - - - - - - - -
02/03:30pm 15.8 W 18 27 - - - - - - - - - -
02/03:19pm 15.7 W 19 29 - - - - - - - - - -
02/03:00pm 15.5 WSW 20 28 - - - - - - - - - -
02/02:36pm 15.3 W 20 30 - - - - - - - - - -
02/02:30pm 15.3 W 21 30 - - - - - - - - - -
02/02:00pm 15.4 W 19 29 - - - - - - - - - -
02/01:30pm 15.2 W 16 27 - - - - - - - - - -
02/01:22pm 15.0 W 17 27 - - - - - - - - - -
02/01:00pm 14.6 W 20 27 - - - - - - - - - -
02/12:31pm 14.1 W 19 29 - - - - - - - - - -
02/12:30pm 14.2 W 19 27 - - - - - - - - - -
02/12:00pm 13.7 WSW 19 29 - - - - - - - - - -
02/11:40am 13.4 WSW 20 30 - - - - - - - - - -
02/11:30am 13.1 W 22 30 - - - - - - - - - -
02/11:00am 12.7 W 23 33 - - - - - - - - - -
02/10:35am 12.3 W 18 28 - - - - - - - - - -
02/10:30am 11.9 W 18 24 - - - - - - - - - -
02/10:00am 10.9 W 20 27 - - - - - - - - - -
02/09:30am 10.3 W 18 24 - - - - - - - - - -
02/09:00am 9.4 W 14 21 - - - - - - - - - -
02/08:30am 9.3 W 12 15 - - - - - - - - - -
02/08:00am 8.7 WNW 12 15 - - - - - - - - - -
02/07:30am 8.9 W 9 12 - - - - - - - - - -
02/07:00am 8.7 W 10 13 - - - - - - - - - -
02/06:30am 8.6 W 9 13 - - - - - - - - - -
02/06:00am 8.8 W 9 13 - - - - - - - - - -
02/05:30am 8.8 W 10 13 - - - - - - - - - -
02/05:00am 8.9 W 9 15 - - - - - - - - - -
02/04:30am 8.9 WSW 13 17 - - - - - - - - - -
02/04:00am 9.3 WSW 16 21 - - - - - - - - - -
02/03:30am 9.1 WSW 15 20 - - - - - - - - - -
02/03:00am 9.0 W 11 16 - - - - - - - - - -
02/02:30am 9.3 W 8 13 - - - - - - - - - -
02/02:00am 9.2 W 10 15 - - - - - - - - - -
02/01:30am 9.5 WSW 12 15 - - - - - - - - - -
02/01:00am 9.8 WSW 13 16 - - - - - - - - - -
02/12:30am 9.7 WSW 14 18 - - - - - - - - - -
02/12:00am 10.3 WSW 13 16 - - - - - - - - - -
 
Date/Time
EST
Temp

°C
Wind Pressure Rain
since 9am
mm
Weather Cloud Vis
km
Sea
Height
m
Swell
Dir
 
Speed
knots
Gust
knots
hPa Trend Height
m
Period
s
Dir
01/11:30pm 10.6 WSW 15 19 - - - - - - - - - -
01/11:00pm 11.3 WSW 14 18 - - - - - - - - - -
01/10:30pm 11.7 WSW 11 14 - - - - - - - - - -
01/10:00pm 11.8 W 9 11 - - - - - - - - - -
01/09:30pm 12.4 WNW 2 5 - - - - - - - - - -
01/09:00pm 13.1 WNW 5 6 - - - - - - - - - -
01/08:30pm 13.2 WNW 6 7 - - - - - - - - - -
01/08:00pm 13.2 S 4 5 - - - - - - - - - -
01/07:30pm 13.4 CALM 0 0 - - - - - - - - - -
01/07:00pm 14.0 CALM 0 0 - - - - - - - - - -
01/06:30pm 14.0 S 1 5 - - - - - - - - - -
01/06:00pm 14.1 S 5 6 - - - - - - - - - -
01/05:30pm 14.2 SSE 7 8 - - - - - - - - - -
01/05:00pm 14.3 S 8 10 - - - - - - - - - -
01/04:30pm 15.0 SSW 9 10 - - - - - - - - - -
01/04:00pm 15.5 SW 9 11 - - - - - - - - - -
01/03:30pm 15.6 W 5 6 - - - - - - - - - -
01/03:00pm 15.4 W 6 7 - - - - - - - - - -
01/02:30pm 15.3 W 5 7 - - - - - - - - - -
01/02:00pm 14.7 W 6 8 - - - - - - - - - -
01/01:30pm 14.3 WSW 8 11 - - - - - - - - - -
01/01:00pm 14.3 WSW 9 11 - - - - - - - - - -
01/12:30pm 13.8 WSW 8 11 - - - - - - - - - -
01/12:00pm 13.4 W 9 12 - - - - - - - - - -
01/11:30am 12.9 W 9 12 - - - - - - - - - -
01/11:00am 12.5 WSW 11 14 - - - - - - - - - -
01/10:30am 12.0 W 11 14 - - - - - - - - - -
01/10:00am 12.5 WSW 9 11 - - - - - - - - - -

Other Formats:

Comma delimited format used in spreadsheet applications
http://www.bom.gov.au/fwo/IDN60701/IDN60701.95766.axf

JavaScript Object Notation format (JSON) in row-major order
http://www.bom.gov.au/fwo/IDN60701/IDN60701.95766.json